Terminal Aerodrome Forecast
Issued by NWS

Home | Current Version | Previous Version | Graphics & Text | Print | Product List | Glossary On
Versions: 1 2 3 4 5 6 7 8 9 10 11 12 13 14 15 16 17 18 19 20 21 22 23 24
199
FTUS43 KBIS 211720
TAFDIK
TAF
KDIK 211720Z 2118/2218 VRB04KT P6SM SCT080
     FM212000 27006KT P6SM SKC
     FM220200 01005KT P6SM SKC
     FM221000 07005KT P6SM SCT250
     FM221500 10009KT P6SM SCT080 BKN150=

USA.gov is the U.S. government's official web portal to all federal, state and local government web resources and services.